Time;durP1;ratioP1;P1;durP2;ratioP2;P2;SDS_P1;SDS_P2;PMS_P1;PMS_P2;Temp;Humidity;BMP_temperature;BMP_pressure;BME280_temperature;BME280_humidity;BME280_pressure;Samples;Min_cycle;Max_cycle;Signal;HPM_P1;HPM_P2
2023/10/05 00:01:20;;;;;;;;;;;13.80;99.00;;;;;;5008230;28;19909;-70
2023/10/05 00:03:50;;;;;;;;;;;13.50;99.70;;;;;;5012874;28;20723;-70
2023/10/05 00:06:27;;;;;;;;;;;13.50;99.90;;;;;;4991333;28;19920;-70
2023/10/05 00:08:54;;;;;;;;;;;13.50;99.90;;;;;;5013406;28;19917;-70
2023/10/05 00:11:24;;;;;;;;;;;13.50;99.60;;;;;;4992616;28;19924;-70
2023/10/05 00:13:53;;;;;;;;;;;13.50;99.90;;;;;;5013556;28;19932;-70
2023/10/05 00:16:22;;;;;;;;;;;13.50;99.70;;;;;;4990547;28;19917;-70
2023/10/05 00:18:49;;;;;;;;;;;13.60;99.30;;;;;;4999031;28;20035;-70
2023/10/05 00:21:21;;;;;;;;;;;13.60;99.10;;;;;;5015292;28;20024;-70
2023/10/05 00:23:57;;;;;;;;;;;13.70;98.60;;;;;;4990902;28;20632;-70
2023/10/05 00:26:23;;;;;;;;;;;13.70;98.30;;;;;;5013201;28;19913;-70
2023/10/05 00:29:04;;;;;;;;;;;13.70;98.10;;;;;;5013647;28;19960;-69
2023/10/05 00:31:30;;;;;;;;;;;13.80;97.70;;;;;;5000556;28;19992;-70
2023/10/05 00:33:57;;;;;;;;;;;13.80;97.00;;;;;;4991334;28;19991;-70
2023/10/05 00:36:32;;;;;;;;;;;13.80;97.20;;;;;;4994304;28;19935;-71
2023/10/05 00:39:01;;;;;;;;;;;13.90;96.90;;;;;;5009408;28;19924;-70
2023/10/05 00:41:28;;;;;;;;;;;13.90;96.70;;;;;;4994982;28;19909;-70
2023/10/05 00:43:53;;;;;;;;;;;13.90;96.40;;;;;;4994331;28;19979;-70
2023/10/05 00:46:20;;;;;;;;;;;13.90;96.20;;;;;;4994947;28;19909;-70
2023/10/05 00:52:13;;;;;;;;;;;13.80;96.70;;;;;;4963894;28;19917;-69
2023/10/05 00:54:40;;;;;;;;;;;13.70;97.10;;;;;;4994873;28;20023;-70
2023/10/05 00:57:09;;;;;;;;;;;13.70;97.20;;;;;;4994912;28;20287;-70
2023/10/05 00:59:36;;;;;;;;;;;13.60;97.20;;;;;;5016161;28;19916;-70
2023/10/05 01:02:14;;;;;;;;;;;13.60;97.30;;;;;;4995375;28;19964;-70
2023/10/05 01:07:26;;;;;;;;;;;13.40;98.10;;;;;;5006295;28;19917;-70
2023/10/05 01:14:53;;;;;;;;;;;13.10;99.40;;;;;;5013684;28;19913;-68
2023/10/05 01:17:22;;;;;;;;;;;13.10;99.40;;;;;;5013492;28;20440;-67
2023/10/05 01:19:53;;;;;;;;;;;13.10;99.80;;;;;;5010602;28;19990;-68
2023/10/05 01:22:21;;;;;;;;;;;13.00;99.90;;;;;;5017872;28;20148;-67
2023/10/05 01:24:48;;;;;;;;;;;13.00;99.90;;;;;;5011587;28;20770;-68
2023/10/05 01:27:14;;;;;;;;;;;13.00;99.90;;;;;;5012311;28;20111;-67
2023/10/05 01:29:40;;;;;;;;;;;13.00;99.90;;;;;;4999212;28;19989;-67
2023/10/05 01:32:07;;;;;;;;;;;13.00;99.90;;;;;;4999106;28;19917;-68
2023/10/05 01:34:33;;;;;;;;;;;12.90;99.90;;;;;;5012869;28;19939;-67
2023/10/05 01:36:58;;;;;;;;;;;12.90;99.90;;;;;;5016184;28;19921;-67
2023/10/05 01:39:25;;;;;;;;;;;12.80;99.90;;;;;;5016715;28;19944;-67
2023/10/05 01:41:51;;;;;;;;;;;12.80;99.90;;;;;;4995734;28;20356;-67
2023/10/05 01:44:17;;;;;;;;;;;12.80;99.90;;;;;;5015657;28;19975;-67
2023/10/05 01:46:42;;;;;;;;;;;12.70;99.90;;;;;;5002003;28;19913;-68
2023/10/05 01:49:08;;;;;;;;;;;12.70;99.90;;;;;;5001535;28;20291;-68
2023/10/05 01:51:34;;;;;;;;;;;12.60;99.90;;;;;;5016019;28;19913;-67
2023/10/05 01:54:26;;;;;;;;;;;12.60;99.90;;;;;;5009152;28;19909;-68
2023/10/05 01:56:47;;;;;;;;;;;12.60;99.90;;;;;;5015355;28;19983;-67
2023/10/05 01:59:13;;;;;;;;;;;12.60;99.90;;;;;;5012753;28;19963;-67
2023/10/05 02:01:40;;;;;;;;;;;12.50;99.90;;;;;;5015815;28;19913;-67
2023/10/05 02:04:07;;;;;;;;;;;12.50;99.90;;;;;;5016627;28;20152;-68
2023/10/05 02:06:49;;;;;;;;;;;12.50;99.90;;;;;;5013873;28;19913;-68
2023/10/05 02:09:18;;;;;;;;;;;12.40;99.90;;;;;;5005323;28;19917;-67
2023/10/05 02:11:43;;;;;;;;;;;12.40;99.90;;;;;;5012209;28;19924;-67
2023/10/05 02:14:12;;;;;;;;;;;12.40;99.90;;;;;;5016837;28;20416;-67
2023/10/05 02:16:38;;;;;;;;;;;12.40;99.90;;;;;;5015707;28;19916;-67
2023/10/05 02:19:05;;;;;;;;;;;12.40;99.90;;;;;;5014259;28;19917;-68
2023/10/05 02:21:36;;;;;;;;;;;12.40;99.90;;;;;;5016944;28;19935;-67
2023/10/05 02:24:10;;;;;;;;;;;12.30;99.90;;;;;;5010551;28;19916;-68
2023/10/05 02:26:39;;;;;;;;;;;12.30;99.90;;;;;;5012650;28;20512;-67
2023/10/05 02:29:17;;;;;;;;;;;12.30;99.90;;;;;;5012884;28;19920;-68
2023/10/05 02:34:24;;;;;;;;;;;12.20;99.90;;;;;;5015587;28;19924;-68
2023/10/05 02:36:54;;;;;;;;;;;12.20;99.90;;;;;;5014943;28;20019;-67
2023/10/05 02:39:22;;;;;;;;;;;12.20;99.90;;;;;;5015986;28;19913;-67
2023/10/05 02:41:50;;;;;;;;;;;12.10;99.90;;;;;;5000553;28;19909;-68
2023/10/05 02:46:47;;;;;;;;;;;12.10;99.90;;;;;;5011626;28;19913;-68
2023/10/05 02:49:15;;;;;;;;;;;12.00;99.90;;;;;;4999184;28;20490;-67
2023/10/05 02:51:41;;;;;;;;;;;12.00;99.90;;;;;;5015347;28;20000;-67
2023/10/05 02:54:10;;;;;;;;;;;12.00;99.90;;;;;;5015095;28;19943;-68
2023/10/05 02:56:37;;;;;;;;;;;12.00;99.90;;;;;;5015100;28;19924;-68
2023/10/05 02:59:07;;;;;;;;;;;12.00;99.90;;;;;;5014839;28;20369;-67
2023/10/05 03:01:39;;;;;;;;;;;12.00;99.90;;;;;;5003991;28;19917;-67
2023/10/05 03:04:44;;;;;;;;;;;12.00;99.90;;;;;;4996806;28;20287;-67
2023/10/05 03:06:54;;;;;;;;;;;12.00;99.90;;;;;;5013443;28;19923;-67
2023/10/05 03:09:21;;;;;;;;;;;12.00;99.90;;;;;;5016354;28;19940;-67
2023/10/05 03:11:47;;;;;;;;;;;12.00;99.90;;;;;;5014707;28;19951;-68
2023/10/05 03:14:16;;;;;;;;;;;12.00;99.90;;;;;;4995390;28;20019;-67
2023/10/05 03:16:47;;;;;;;;;;;11.90;99.90;;;;;;5010606;28;19916;-67
2023/10/05 03:19:15;;;;;;;;;;;12.00;99.90;;;;;;5021482;28;19917;-67
2023/10/05 03:21:41;;;;;;;;;;;11.90;99.90;;;;;;5015705;28;19958;-67
2023/10/05 03:24:13;;;;;;;;;;;11.90;99.90;;;;;;5013589;28;20348;-67
2023/10/05 03:26:39;;;;;;;;;;;11.90;99.90;;;;;;5014025;28;19913;-67
2023/10/05 03:29:06;;;;;;;;;;;11.90;99.90;;;;;;5014486;28;19963;-67
2023/10/05 03:31:36;;;;;;;;;;;11.80;99.90;;;;;;5003341;28;19921;-67
2023/10/05 03:34:02;;;;;;;;;;;11.80;99.90;;;;;;5009931;28;19909;-68
2023/10/05 03:36:32;;;;;;;;;;;11.80;99.90;;;;;;5014005;28;19909;-67
2023/10/05 03:38:58;;;;;;;;;;;11.80;99.90;;;;;;5009290;28;19919;-67
2023/10/05 03:41:27;;;;;;;;;;;11.80;99.90;;;;;;4998574;28;19924;-67
2023/10/05 03:43:55;;;;;;;;;;;11.80;99.90;;;;;;5008941;28;19921;-68
2023/10/05 03:46:25;;;;;;;;;;;11.80;99.90;;;;;;5013895;28;20351;-67
2023/10/05 03:48:59;;;;;;;;;;;11.70;99.90;;;;;;5017677;28;19923;-68
2023/10/05 03:51:26;;;;;;;;;;;11.70;99.90;;;;;;5014174;28;19918;-67
2023/10/05 03:53:51;;;;;;;;;;;11.70;99.90;;;;;;5010414;28;19924;-67
2023/10/05 03:56:21;;;;;;;;;;;11.70;99.90;;;;;;4995502;28;20099;-67
2023/10/05 03:58:48;;;;;;;;;;;11.70;99.90;;;;;;5009374;28;19913;-67
2023/10/05 04:01:17;;;;;;;;;;;11.70;99.90;;;;;;4995885;28;19913;-67
2023/10/05 04:03:44;;;;;;;;;;;11.70;99.90;;;;;;5014444;28;20317;-68
2023/10/05 04:06:26;;;;;;;;;;;11.70;99.90;;;;;;5013938;28;20002;-67
2023/10/05 04:08:57;;;;;;;;;;;11.60;99.90;;;;;;5009505;28;19920;-68
2023/10/05 04:11:26;;;;;;;;;;;11.60;99.90;;;;;;5003494;28;19917;-67
2023/10/05 04:13:55;;;;;;;;;;;11.60;99.90;;;;;;4998628;28;20003;-67
2023/10/05 04:16:22;;;;;;;;;;;11.50;99.90;;;;;;5000936;28;19913;-67
2023/10/05 04:18:49;;;;;;;;;;;11.50;99.90;;;;;;5009807;28;19924;-67
2023/10/05 04:21:18;;;;;;;;;;;11.50;99.90;;;;;;5013249;28;19978;-67
2023/10/05 04:23:46;;;;;;;;;;;11.40;99.90;;;;;;5013411;28;20740;-67
2023/10/05 04:26:11;;;;;;;;;;;11.40;99.90;;;;;;4996236;28;19940;-67
2023/10/05 04:28:41;;;;;;;;;;;11.40;99.90;;;;;;5014713;28;20582;-67
2023/10/05 04:31:13;;;;;;;;;;;11.40;99.90;;;;;;5014742;28;19920;-67
2023/10/05 04:33:42;;;;;;;;;;;11.40;99.90;;;;;;4991055;28;20000;-67
2023/10/05 04:36:08;;;;;;;;;;;11.30;99.90;;;;;;5005940;28;19921;-67
2023/10/05 04:38:33;;;;;;;;;;;11.40;99.90;;;;;;5013252;28;19913;-68
2023/10/05 04:40:59;;;;;;;;;;;11.30;99.90;;;;;;5011229;28;19919;-68
2023/10/05 04:43:24;;;;;;;;;;;11.30;99.90;;;;;;5012958;28;20023;-68
2023/10/05 04:45:51;;;;;;;;;;;11.30;99.90;;;;;;5013086;28;19924;-68
2023/10/05 04:48:18;;;;;;;;;;;11.30;99.90;;;;;;5010405;28;19909;-67
2023/10/05 04:50:44;;;;;;;;;;;11.30;99.90;;;;;;5012718;28;19920;-68
2023/10/05 04:53:11;;;;;;;;;;;11.30;99.90;;;;;;5007577;28;19910;-67
2023/10/05 04:55:41;;;;;;;;;;;11.30;99.90;;;;;;4993715;28;20037;-68
2023/10/05 04:58:31;;;;;;;;;;;11.30;99.90;;;;;;5008692;28;19913;-70
2023/10/05 05:03:48;;;;;;;;;;;11.30;99.90;;;;;;5008022;28;19913;-67
2023/10/05 05:06:14;;;;;;;;;;;11.40;99.90;;;;;;5007177;28;19924;-66
2023/10/05 05:08:40;;;;;;;;;;;11.40;99.90;;;;;;4994752;28;19971;-66
2023/10/05 05:11:11;;;;;;;;;;;11.40;99.90;;;;;;5013356;28;19952;-66
2023/10/05 05:13:38;;;;;;;;;;;11.50;99.90;;;;;;5011058;28;20399;-66
2023/10/05 05:16:05;;;;;;;;;;;11.70;99.90;;;;;;5005005;28;20000;-65
2023/10/05 05:18:37;;;;;;;;;;;12.10;99.90;;;;;;5011841;28;20548;-65
2023/10/05 05:21:11;;;;;;;;;;;12.40;99.90;;;;;;5013656;28;19920;-67
2023/10/05 05:23:37;;;;;;;;;;;12.70;99.90;;;;;;5010613;28;20356;-66
2023/10/05 05:26:09;;;;;;;;;;;13.00;99.90;;;;;;5011922;28;19913;-67
2023/10/05 05:28:37;;;;;;;;;;;13.10;99.90;;;;;;4998732;28;20009;-68
2023/10/05 05:31:07;;;;;;;;;;;13.40;99.90;;;;;;5016037;28;20328;-68
2023/10/05 05:33:36;;;;;;;;;;;13.60;99.90;;;;;;5015675;28;19913;-68
2023/10/05 05:36:05;;;;;;;;;;;13.60;99.90;;;;;;5007847;28;19909;-68
2023/10/05 05:38:33;;;;;;;;;;;13.60;99.90;;;;;;4993808;28;19925;-67
2023/10/05 05:40:59;;;;;;;;;;;13.80;99.90;;;;;;5015940;28;19913;-68
2023/10/05 05:43:28;;;;;;;;;;;14.00;99.90;;;;;;4818640;28;5539091;-78
2023/10/05 05:45:58;;;;;;;;;;;14.50;99.90;;;;;;5012640;28;19925;-78
2023/10/05 05:48:24;;;;;;;;;;;14.90;99.90;;;;;;5019207;28;19917;-78
2023/10/05 05:50:55;;;;;;;;;;;14.80;99.90;;;;;;5029131;28;19940;-77
2023/10/05 05:53:20;;;;;;;;;;;14.60;99.90;;;;;;5026598;28;19917;-76
2023/10/05 05:55:53;;;;;;;;;;;14.80;99.90;;;;;;5011341;28;19905;-77
2023/10/05 05:58:19;;;;;;;;;;;15.30;99.90;;;;;;5020939;28;19928;-73
2023/10/05 06:00:46;;;;;;;;;;;15.60;99.90;;;;;;5000673;28;20285;-76
2023/10/05 06:03:15;;;;;;;;;;;16.10;99.90;;;;;;5006530;28;19920;-78
2023/10/05 06:05:43;;;;;;;;;;;16.50;99.90;;;;;;5012921;28;19897;-78
2023/10/05 06:08:17;;;;;;;;;;;16.70;99.90;;;;;;5033183;28;19924;-78
2023/10/05 06:10:46;;;;;;;;;;;16.80;99.90;;;;;;5019737;28;19936;-78
2023/10/05 06:13:13;;;;;;;;;;;17.10;99.90;;;;;;5009603;28;19928;-77
2023/10/05 06:15:38;;;;;;;;;;;17.60;99.90;;;;;;5011717;28;19898;-78
2023/10/05 06:18:05;;;;;;;;;;;17.50;99.20;;;;;;5010787;28;19936;-78
2023/10/05 06:20:31;;;;;;;;;;;17.50;99.90;;;;;;5022970;28;20412;-77
2023/10/05 06:22:58;;;;;;;;;;;18.10;99.00;;;;;;5016393;28;20666;-77
2023/10/05 06:25:23;;;;;;;;;;;18.30;98.50;;;;;;5019215;28;20003;-77
2023/10/05 06:27:49;;;;;;;;;;;18.90;97.70;;;;;;5012188;28;19913;-76
2023/10/05 06:30:17;;;;;;;;;;;19.30;96.60;;;;;;5019530;28;20386;-77
2023/10/05 06:32:43;;;;;;;;;;;19.20;96.60;;;;;;5016991;28;19984;-77
2023/10/05 06:35:09;;;;;;;;;;;19.40;96.70;;;;;;5002193;28;20000;-77
2023/10/05 06:37:38;;;;;;;;;;;19.40;95.70;;;;;;5022252;28;19960;-78
2023/10/05 06:40:12;;;;;;;;;;;19.50;95.10;;;;;;5012473;28;19913;-77
2023/10/05 06:42:41;;;;;;;;;;;19.50;95.70;;;;;;5013167;28;19936;-76
2023/10/05 06:45:13;;;;;;;;;;;19.90;94.90;;;;;;5000943;28;20350;-77
2023/10/05 06:47:39;;;;;;;;;;;19.90;94.50;;;;;;5009114;28;20603;-77
2023/10/05 06:50:08;;;;;;;;;;;19.40;94.90;;;;;;5003750;28;20334;-77
2023/10/05 06:53:00;;;;;;;;;;;19.20;95.20;;;;;;5000944;28;19909;-77
2023/10/05 06:55:28;;;;;;;;;;;18.60;96.40;;;;;;5010955;28;20035;-77
2023/10/05 06:57:54;;;;;;;;;;;18.10;96.90;;;;;;5018183;28;20003;-77
2023/10/05 07:00:20;;;;;;;;;;;17.40;97.80;;;;;;5018356;28;20016;-77
2023/10/05 07:02:50;;;;;;;;;;;17.10;98.60;;;;;;5018844;28;19913;-78
2023/10/05 07:05:16;;;;;;;;;;;16.70;99.00;;;;;;5021101;28;19913;-77
2023/10/05 07:07:42;;;;;;;;;;;16.20;99.90;;;;;;5001830;28;19917;-78
2023/10/05 07:10:08;;;;;;;;;;;16.00;99.90;;;;;;5023055;28;19919;-78
2023/10/05 07:12:46;;;;;;;;;;;15.90;99.90;;;;;;5000950;28;19909;-78
2023/10/05 07:15:17;;;;;;;;;;;15.90;99.90;;;;;;5000017;28;19956;-77
2023/10/05 07:17:44;;;;;;;;;;;16.20;99.90;;;;;;5000975;28;20444;-77
2023/10/05 07:20:13;;;;;;;;;;;16.40;99.90;;;;;;5020095;28;19940;-77
2023/10/05 07:22:43;;;;;;;;;;;16.40;99.90;;;;;;5001203;28;20004;-77
2023/10/05 07:25:10;;;;;;;;;;;16.60;99.90;;;;;;5000955;28;19916;-77
2023/10/05 07:27:36;;;;;;;;;;;16.90;99.90;;;;;;5000011;28;19916;-77
2023/10/05 07:30:03;;;;;;;;;;;17.50;99.90;;;;;;4999638;28;20019;-76
2023/10/05 07:32:34;;;;;;;;;;;17.90;99.30;;;;;;4999097;28;20352;-77
2023/10/05 07:35:00;;;;;;;;;;;18.20;98.00;;;;;;5018520;28;19967;-77
2023/10/05 07:37:26;;;;;;;;;;;19.20;97.00;;;;;;5015837;28;19925;-76
2023/10/05 07:39:51;;;;;;;;;;;20.10;95.40;;;;;;5001883;28;19960;-77
2023/10/05 07:42:17;;;;;;;;;;;20.80;94.60;;;;;;5014820;28;20273;-76
2023/10/05 07:44:46;;;;;;;;;;;21.70;93.80;;;;;;5017332;28;20015;-76
2023/10/05 07:47:13;;;;;;;;;;;21.50;92.50;;;;;;4996374;28;19939;-79
2023/10/05 07:49:38;;;;;;;;;;;22.00;92.40;;;;;;5001522;28;19913;-79
2023/10/05 07:52:07;;;;;;;;;;;21.90;92.20;;;;;;5000409;28;20544;-79
2023/10/05 07:54:34;;;;;;;;;;;21.50;91.80;;;;;;5008443;28;19909;-79
2023/10/05 07:57:01;;;;;;;;;;;21.30;91.60;;;;;;5000299;28;19920;-79
2023/10/05 07:59:28;;;;;;;;;;;21.10;92.40;;;;;;4996883;28;20553;-80
2023/10/05 08:01:54;;;;;;;;;;;20.80;92.60;;;;;;4999271;28;20609;-80
2023/10/05 08:04:22;;;;;;;;;;;20.80;92.50;;;;;;5016714;28;20630;-79
2023/10/05 08:06:48;;;;;;;;;;;20.90;92.50;;;;;;5007030;28;19916;-80
2023/10/05 08:09:15;;;;;;;;;;;21.60;91.90;;;;;;5000192;28;20541;-78
2023/10/05 08:11:41;;;;;;;;;;;22.20;91.00;;;;;;5000725;28;20536;-79
2023/10/05 08:14:07;;;;;;;;;;;23.00;90.40;;;;;;4999076;28;20430;-80
2023/10/05 08:16:34;;;;;;;;;;;23.10;89.80;;;;;;4998612;28;19909;-79
2023/10/05 08:19:00;;;;;;;;;;;22.80;89.30;;;;;;5016294;28;19917;-79
2023/10/05 08:21:27;;;;;;;;;;;22.90;89.30;;;;;;5003019;28;20452;-79
2023/10/05 08:23:52;;;;;;;;;;;23.30;88.80;;;;;;5014925;28;19910;-79
2023/10/05 08:26:18;;;;;;;;;;;24.00;87.60;;;;;;5016530;28;19909;-79
2023/10/05 08:28:49;;;;;;;;;;;23.90;85.50;;;;;;5016689;28;20629;-79
2023/10/05 08:31:16;;;;;;;;;;;23.40;86.70;;;;;;4994822;28;19960;-79
2023/10/05 08:33:41;;;;;;;;;;;22.40;89.00;;;;;;5016359;28;20613;-78
2023/10/05 08:36:11;;;;;;;;;;;22.60;88.50;;;;;;5020740;28;19936;-79
2023/10/05 08:38:37;;;;;;;;;;;22.80;88.40;;;;;;5018043;28;19964;-79
2023/10/05 08:41:11;;;;;;;;;;;22.70;87.30;;;;;;5015905;28;20311;-79
2023/10/05 08:43:40;;;;;;;;;;;21.60;89.80;;;;;;4999836;28;20047;-79
2023/10/05 08:46:11;;;;;;;;;;;22.10;90.00;;;;;;5016704;28;19974;-79
2023/10/05 08:48:36;;;;;;;;;;;22.40;89.00;;;;;;5002998;28;19909;-78
2023/10/05 08:51:12;;;;;;;;;;;23.20;88.40;;;;;;5018404;28;19932;-79
2023/10/05 08:53:48;;;;;;;;;;;24.40;85.80;;;;;;5012895;28;20372;-79
2023/10/05 08:56:15;;;;;;;;;;;25.60;83.10;;;;;;5012862;28;19948;-78
2023/10/05 08:58:48;;;;;;;;;;;25.60;81.00;;;;;;4999802;28;19925;-79
2023/10/05 09:01:29;;;;;;;;;;;25.20;81.60;;;;;;5005363;28;19967;-78
2023/10/05 09:07:08;;;;;;;;;;;25.20;80.70;;;;;;5015832;28;20218;-78
2023/10/05 09:09:52;;;;;;;;;;;26.10;79.70;;;;;;5016095;28;20352;-78
2023/10/05 09:12:34;;;;;;;;;;;27.00;78.00;;;;;;5010632;28;20331;-78
2023/10/05 09:15:10;;;;;;;;;;;26.90;77.40;;;;;;5000237;28;19913;-78
2023/10/05 09:17:36;;;;;;;;;;;26.10;78.00;;;;;;4995744;28;19909;-79
2023/10/05 09:20:31;;;;;;;;;;;25.50;77.60;;;;;;4997556;28;20030;-79
2023/10/05 09:22:58;;;;;;;;;;;25.50;77.70;;;;;;4981687;28;20044;-78
2023/10/05 09:25:30;;;;;;;;;;;26.30;76.00;;;;;;5015530;28;20732;-78
2023/10/05 09:27:59;;;;;;;;;;;26.70;75.60;;;;;;5002083;28;20372;-78
2023/10/05 09:30:29;;;;;;;;;;;26.60;75.00;;;;;;4998902;28;20384;-79
2023/10/05 09:33:07;;;;;;;;;;;26.20;74.90;;;;;;5016113;28;19924;-79
2023/10/05 09:35:33;;;;;;;;;;;26.70;74.50;;;;;;5014670;28;19910;-79
2023/10/05 09:37:59;;;;;;;;;;;27.90;73.90;;;;;;5001055;28;19920;-79
2023/10/05 09:40:26;;;;;;;;;;;29.20;72.20;;;;;;5000228;28;19921;-79
2023/10/05 09:42:53;;;;;;;;;;;29.70;69.40;;;;;;5011354;28;20492;-79
2023/10/05 09:45:22;;;;;;;;;;;28.40;70.10;;;;;;5002466;28;20578;-79
2023/10/05 09:47:48;;;;;;;;;;;28.80;70.60;;;;;;5019817;28;19917;-79
2023/10/05 09:50:15;;;;;;;;;;;27.90;69.80;;;;;;5001489;28;19959;-78
2023/10/05 09:52:46;;;;;;;;;;;28.30;70.00;;;;;;5020001;28;19949;-79
2023/10/05 09:55:17;;;;;;;;;;;29.80;65.80;;;;;;5002224;28;20424;-79
2023/10/05 09:57:52;;;;;;;;;;;30.40;63.30;;;;;;5015917;28;19917;-79
2023/10/05 10:00:29;;;;;;;;;;;31.20;62.40;;;;;;5020487;28;19979;-79
2023/10/05 10:02:59;;;;;;;;;;;31.70;60.80;;;;;;5019145;28;19917;-79
2023/10/05 10:05:36;;;;;;;;;;;33.60;58.50;;;;;;4998395;28;19921;-80
2023/10/05 10:08:09;;;;;;;;;;;34.00;56.70;;;;;;5000770;28;20357;-79
2023/10/05 10:10:40;;;;;;;;;;;33.70;56.20;;;;;;5016041;28;20536;-80
2023/10/05 10:13:11;;;;;;;;;;;33.60;56.30;;;;;;5000385;28;19917;-81
2023/10/05 10:15:39;;;;;;;;;;;34.40;55.70;;;;;;5019539;28;19909;-80
2023/10/05 10:18:15;;;;;;;;;;;34.30;54.60;;;;;;5022180;28;19917;-80
2023/10/05 10:20:45;;;;;;;;;;;35.50;54.60;;;;;;5014220;28;20115;-80
2023/10/05 10:23:19;;;;;;;;;;;37.10;52.90;;;;;;5018539;28;20414;-80
2023/10/05 10:25:45;;;;;;;;;;;37.40;50.80;;;;;;4998893;28;20348;-80
2023/10/05 10:28:15;;;;;;;;;;;37.10;50.80;;;;;;5001091;28;19921;-81
2023/10/05 10:30:47;;;;;;;;;;;37.50;51.10;;;;;;5019064;28;19956;-78
2023/10/05 10:33:35;;;;;;;;;;;37.40;49.90;;;;;;5013230;28;19940;-78
2023/10/05 10:36:02;;;;;;;;;;;37.70;50.00;;;;;;5002709;28;20451;-81
2023/10/05 10:38:28;;;;;;;;;;;36.60;47.90;;;;;;5017053;28;19913;-80
2023/10/05 10:41:07;;;;;;;;;;;36.30;49.00;;;;;;5020115;28;19917;-80
2023/10/05 10:43:33;;;;;;;;;;;36.10;48.60;;;;;;5017239;28;20376;-80
2023/10/05 10:46:00;;;;;;;;;;;35.10;48.80;;;;;;5001087;28;19909;-80
2023/10/05 10:48:29;;;;;;;;;;;34.60;49.90;;;;;;5020090;28;19917;-80
2023/10/05 10:50:59;;;;;;;;;;;32.20;50.90;;;;;;5017991;28;20057;-80
2023/10/05 10:53:31;;;;;;;;;;;30.40;52.90;;;;;;5014729;28;21258;-79
2023/10/05 10:56:03;;;;;;;;;;;29.00;54.50;;;;;;5008540;28;20652;-80
2023/10/05 10:58:31;;;;;;;;;;;28.00;55.50;;;;;;5002516;28;19917;-80
2023/10/05 11:01:03;;;;;;;;;;;27.30;57.40;;;;;;5019343;28;19913;-79
2023/10/05 11:03:30;;;;;;;;;;;26.50;58.60;;;;;;5017701;28;20324;-79
2023/10/05 11:05:58;;;;;;;;;;;26.30;58.70;;;;;;5000674;28;20394;-78
2023/10/05 11:08:24;;;;;;;;;;;26.20;58.80;;;;;;5014900;28;19924;-79
2023/10/05 11:10:59;;;;;;;;;;;26.10;58.80;;;;;;5020501;28;19917;-79
2023/10/05 11:13:25;;;;;;;;;;;25.90;59.20;;;;;;5010552;28;19948;-79
2023/10/05 11:15:58;;;;;;;;;;;25.90;59.50;;;;;;5017971;28;19909;-78
2023/10/05 11:18:24;;;;;;;;;;;25.90;60.10;;;;;;4997023;28;19917;-79
2023/10/05 11:20:53;;;;;;;;;;;25.90;60.10;;;;;;5018536;28;20369;-78
2023/10/05 11:23:25;;;;;;;;;;;25.90;60.10;;;;;;5000262;28;20510;-79
2023/10/05 11:25:52;;;;;;;;;;;25.90;60.90;;;;;;5014932;28;20345;-78
2023/10/05 11:28:25;;;;;;;;;;;25.90;61.30;;;;;;4999526;28;19909;-80
2023/10/05 11:30:53;;;;;;;;;;;26.10;61.00;;;;;;5017923;28;19963;-80
2023/10/05 11:33:19;;;;;;;;;;;25.90;61.00;;;;;;5019601;28;20458;-80
2023/10/05 11:35:48;;;;;;;;;;;25.70;61.80;;;;;;5001020;28;20044;-80
2023/10/05 11:38:16;;;;;;;;;;;25.60;62.30;;;;;;4995523;28;19910;-80
2023/10/05 11:40:49;;;;;;;;;;;25.60;62.50;;;;;;5011732;28;20471;-79
2023/10/05 11:43:18;;;;;;;;;;;25.60;62.40;;;;;;5000229;28;19957;-81
2023/10/05 11:45:56;;;;;;;;;;;25.60;62.80;;;;;;5001411;28;19918;-80
2023/10/05 11:48:41;;;;;;;;;;;25.60;62.80;;;;;;4999196;28;19909;-79
2023/10/05 11:51:11;;;;;;;;;;;25.50;62.70;;;;;;4990229;28;20003;-80
2023/10/05 11:53:37;;;;;;;;;;;25.30;63.20;;;;;;5003604;28;19909;-79
2023/10/05 11:56:04;;;;;;;;;;;25.20;63.30;;;;;;5000991;28;19917;-80
2023/10/05 11:58:36;;;;;;;;;;;25.10;63.60;;;;;;5001946;28;20212;-80
2023/10/05 12:01:03;;;;;;;;;;;25.00;63.70;;;;;;5015504;28;19958;-80
2023/10/05 12:03:30;;;;;;;;;;;25.10;64.20;;;;;;5008107;28;20407;-80
2023/10/05 12:06:00;;;;;;;;;;;25.10;64.20;;;;;;5001845;28;20404;-79
2023/10/05 12:08:28;;;;;;;;;;;25.10;63.90;;;;;;4997263;28;19913;-80
2023/10/05 12:10:58;;;;;;;;;;;25.10;64.10;;;;;;5013433;28;20620;-79
2023/10/05 12:13:24;;;;;;;;;;;25.00;64.30;;;;;;5000344;28;19971;-80
2023/10/05 12:15:51;;;;;;;;;;;25.00;64.20;;;;;;5020507;28;19913;-80
2023/10/05 12:18:17;;;;;;;;;;;24.90;64.50;;;;;;5020795;28;19913;-79
2023/10/05 12:20:42;;;;;;;;;;;25.00;64.30;;;;;;4998345;28;19962;-79
2023/10/05 12:23:13;;;;;;;;;;;25.00;64.90;;;;;;5019149;28;19951;-80
2023/10/05 12:25:39;;;;;;;;;;;25.00;64.90;;;;;;5012120;28;19914;-79
2023/10/05 12:28:05;;;;;;;;;;;25.20;64.60;;;;;;5015879;28;19935;-79
2023/10/05 12:30:31;;;;;;;;;;;25.20;63.50;;;;;;5002457;28;19931;-80
2023/10/05 12:32:58;;;;;;;;;;;25.10;63.90;;;;;;5026827;28;19909;-80
2023/10/05 12:35:29;;;;;;;;;;;24.80;64.30;;;;;;5022910;28;19913;-80
2023/10/05 12:37:55;;;;;;;;;;;24.90;64.90;;;;;;5008149;28;19945;-80
2023/10/05 12:40:26;;;;;;;;;;;25.00;65.10;;;;;;5004930;28;20518;-79
2023/10/05 12:42:52;;;;;;;;;;;25.10;64.80;;;;;;5014581;28;19981;-79
2023/10/05 12:45:21;;;;;;;;;;;25.10;64.80;;;;;;5021136;28;19952;-79
2023/10/05 12:47:52;;;;;;;;;;;25.10;64.60;;;;;;5021735;28;19901;-81
2023/10/05 12:50:19;;;;;;;;;;;25.10;64.80;;;;;;5018376;28;19924;-80
2023/10/05 12:52:46;;;;;;;;;;;25.10;64.70;;;;;;5010693;28;19943;-79
2023/10/05 12:55:11;;;;;;;;;;;24.90;65.00;;;;;;5015448;28;19917;-78
2023/10/05 12:57:38;;;;;;;;;;;25.10;64.70;;;;;;4998970;28;20245;-78
2023/10/05 13:00:19;;;;;;;;;;;25.20;64.00;;;;;;5016366;28;20349;-78
2023/10/05 13:02:54;;;;;;;;;;;25.30;64.00;;;;;;5018525;28;19921;-78
2023/10/05 13:05:21;;;;;;;;;;;25.20;64.30;;;;;;5016398;28;19920;-79
2023/10/05 13:07:50;;;;;;;;;;;25.10;64.80;;;;;;5001881;28;19913;-79
2023/10/05 13:10:26;;;;;;;;;;;25.00;64.90;;;;;;5019419;28;20013;-80
2023/10/05 13:12:52;;;;;;;;;;;24.90;64.90;;;;;;5012354;28;19963;-80
2023/10/05 13:15:19;;;;;;;;;;;24.90;65.70;;;;;;5020798;28;19909;-79
2023/10/05 13:17:46;;;;;;;;;;;24.70;65.60;;;;;;5000038;28;19957;-79
2023/10/05 13:20:14;;;;;;;;;;;24.60;66.20;;;;;;5003802;28;19921;-79
2023/10/05 13:22:44;;;;;;;;;;;24.50;65.50;;;;;;5011900;28;19919;-79
2023/10/05 13:25:10;;;;;;;;;;;24.30;65.80;;;;;;5020244;28;19920;-79
2023/10/05 13:27:37;;;;;;;;;;;24.20;65.60;;;;;;5024387;28;19921;-80
2023/10/05 13:30:03;;;;;;;;;;;24.20;65.50;;;;;;5012060;28;19943;-80
2023/10/05 13:32:32;;;;;;;;;;;24.00;65.50;;;;;;5002373;28;20502;-80
2023/10/05 13:34:58;;;;;;;;;;;23.90;66.10;;;;;;5022990;28;19917;-80
2023/10/05 13:37:27;;;;;;;;;;;23.80;66.90;;;;;;5004112;28;20301;-79
2023/10/05 13:39:54;;;;;;;;;;;23.70;67.30;;;;;;5020263;28;19913;-80
2023/10/05 13:42:26;;;;;;;;;;;23.60;67.40;;;;;;5023651;28;20378;-81
2023/10/05 13:44:53;;;;;;;;;;;23.50;67.60;;;;;;5000881;28;20177;-80
2023/10/05 13:47:18;;;;;;;;;;;23.40;67.60;;;;;;5025929;28;20372;-80
2023/10/05 13:49:51;;;;;;;;;;;23.40;67.80;;;;;;5023178;28;19963;-80
2023/10/05 13:52:23;;;;;;;;;;;23.40;68.00;;;;;;5001577;28;19964;-80
2023/10/05 13:54:49;;;;;;;;;;;23.30;67.90;;;;;;5004653;28;19941;-80
2023/10/05 13:57:15;;;;;;;;;;;23.20;68.60;;;;;;5019046;28;19913;-80
2023/10/05 13:59:41;;;;;;;;;;;23.20;68.60;;;;;;5023642;28;19979;-80
2023/10/05 14:02:07;;;;;;;;;;;23.20;69.10;;;;;;5004144;28;20321;-80
2023/10/05 14:04:37;;;;;;;;;;;23.10;68.80;;;;;;5002279;28;19939;-80
2023/10/05 14:07:06;;;;;;;;;;;23.10;69.10;;;;;;5025850;28;20324;-80
2023/10/05 14:09:41;;;;;;;;;;;23.00;68.80;;;;;;5003886;28;19913;-80
2023/10/05 14:12:07;;;;;;;;;;;23.00;69.20;;;;;;5014213;28;19910;-80
2023/10/05 14:14:35;;;;;;;;;;;22.90;69.50;;;;;;5003515;28;19913;-80
2023/10/05 14:17:06;;;;;;;;;;;22.90;69.50;;;;;;5018068;28;19917;-80
2023/10/05 14:19:33;;;;;;;;;;;22.90;70.30;;;;;;5015979;28;20581;-80
2023/10/05 14:22:04;;;;;;;;;;;22.80;69.90;;;;;;5002750;28;19913;-80
2023/10/05 14:24:32;;;;;;;;;;;22.80;69.80;;;;;;5009680;28;19909;-80
2023/10/05 14:26:59;;;;;;;;;;;22.70;69.30;;;;;;5021898;28;19970;-80
2023/10/05 14:29:34;;;;;;;;;;;22.70;69.50;;;;;;5003035;28;20259;-80
2023/10/05 14:32:04;;;;;;;;;;;22.70;70.00;;;;;;5006351;28;19967;-80
2023/10/05 14:34:31;;;;;;;;;;;22.50;69.70;;;;;;5018728;28;19917;-80
2023/10/05 14:36:58;;;;;;;;;;;22.40;70.30;;;;;;5015297;28;19921;-80
2023/10/05 14:39:32;;;;;;;;;;;22.40;70.10;;;;;;5017139;28;19951;-80
2023/10/05 14:42:00;;;;;;;;;;;22.30;70.20;;;;;;5006096;28;19910;-80
2023/10/05 14:44:28;;;;;;;;;;;22.20;70.20;;;;;;5006386;28;19925;-80
2023/10/05 14:46:55;;;;;;;;;;;22.10;70.40;;;;;;5018394;28;21298;-80
2023/10/05 14:49:23;;;;;;;;;;;22.00;70.50;;;;;;5022729;28;19927;-80